createdAt,value
2023-04-27T00:02:20.011Z,7.75
2023-04-27T00:04:47.995Z,8.70
2023-04-27T00:07:15.165Z,7.43
2023-04-27T00:09:44.574Z,8.50
2023-04-27T00:12:11.509Z,9.68
2023-04-27T00:14:40.571Z,7.25
2023-04-27T00:17:07.558Z,12.10
2023-04-27T00:19:41.830Z,9.85
2023-04-27T00:22:09.159Z,9.23
2023-04-27T00:24:41.772Z,9.13
2023-04-27T00:27:13.522Z,8.65
2023-04-27T00:29:43.852Z,10.35
2023-04-27T00:32:11.349Z,11.57
2023-04-27T00:34:38.691Z,10.10
2023-04-27T00:37:07.947Z,7.47
2023-04-27T00:39:37.052Z,7.95
2023-04-27T00:42:11.470Z,9.02
2023-04-27T00:44:39.845Z,9.43
2023-04-27T00:47:07.195Z,9.82
2023-04-27T00:49:34.168Z,13.02
2023-04-27T00:52:01.097Z,7.97
2023-04-27T00:54:30.142Z,6.30
2023-04-27T00:56:58.097Z,8.05
2023-04-27T00:59:27.487Z,10.52
2023-04-27T01:01:55.230Z,10.18
2023-04-27T01:04:24.670Z,9.07
2023-04-27T01:06:53.934Z,9.20
2023-04-27T01:09:21.308Z,12.23
2023-04-27T01:11:50.144Z,9.50
2023-04-27T01:14:19.312Z,6.72
2023-04-27T01:16:46.501Z,11.80
2023-04-27T01:19:13.900Z,10.75
2023-04-27T01:21:41.043Z,8.50
2023-04-27T01:24:08.579Z,9.48
2023-04-27T01:26:37.744Z,12.77
2023-04-27T01:29:07.661Z,11.13
2023-04-27T01:31:36.851Z,11.75
2023-04-27T01:34:03.867Z,11.30
2023-04-27T01:36:32.456Z,11.70
2023-04-27T01:38:59.389Z,14.23
2023-04-27T01:41:28.812Z,14.85
2023-04-27T01:43:55.757Z,11.20
2023-04-27T01:46:22.694Z,14.63
2023-04-27T01:48:55.268Z,16.33
2023-04-27T01:51:24.698Z,14.60
2023-04-27T01:53:51.607Z,13.15
2023-04-27T01:56:18.528Z,14.68
2023-04-27T01:58:46.229Z,19.15
2023-04-27T02:01:13.718Z,12.85
2023-04-27T02:03:42.972Z,15.13
2023-04-27T02:06:14.756Z,14.88
2023-04-27T02:08:46.132Z,12.55
2023-04-27T02:11:13.079Z,15.02
2023-04-27T02:13:42.221Z,17.33
2023-04-27T02:16:11.440Z,16.08
2023-04-27T02:18:42.867Z,16.20
2023-04-27T02:21:12.553Z,14.38
2023-04-27T02:23:41.612Z,17.42
2023-04-27T02:26:08.584Z,16.52
2023-04-27T02:28:38.433Z,16.25
2023-04-27T02:31:06.213Z,17.33
2023-04-27T02:33:35.385Z,15.73
2023-04-27T02:36:02.355Z,17.52
2023-04-27T02:38:34.495Z,18.33
2023-04-27T02:41:01.479Z,20.70
2023-04-27T02:43:30.662Z,16.85
2023-04-27T02:45:59.808Z,22.17
2023-04-27T02:48:31.107Z,16.90
2023-04-27T02:50:58.052Z,15.60
2023-04-27T02:53:25.030Z,20.40
2023-04-27T02:55:52.028Z,16.95
2023-04-27T02:58:21.421Z,21.77
2023-04-27T03:00:55.788Z,18.80
2023-04-27T03:03:25.278Z,18.60
2023-04-27T03:05:52.360Z,18.38
2023-04-27T03:08:19.299Z,18.85
2023-04-27T03:10:46.277Z,19.10
2023-04-27T03:13:14.518Z,18.70
2023-04-27T03:15:43.856Z,19.13
2023-04-27T03:18:13.276Z,19.27
2023-04-27T03:20:41.426Z,20.60
2023-04-27T03:23:10.641Z,19.13
2023-04-27T03:25:37.566Z,18.60
2023-04-27T03:28:07.686Z,18.65
2023-04-27T03:30:34.616Z,21.67
2023-04-27T03:33:01.677Z,19.88
2023-04-27T03:35:29.852Z,18.08
2023-04-27T03:37:56.795Z,18.25
2023-04-27T03:40:26.204Z,22.90
2023-04-27T03:42:56.040Z,22.02
2023-04-27T03:45:26.546Z,21.02
2023-04-27T03:47:55.777Z,20.95
2023-04-27T03:50:28.911Z,18.70
2023-04-27T03:52:57.000Z,23.50
2023-04-27T03:55:26.311Z,20.33
2023-04-27T03:57:55.671Z,22.58
2023-04-27T04:00:27.237Z,23.08
2023-04-27T04:02:57.087Z,22.95
2023-04-27T04:05:26.343Z,23.13
2023-04-27T04:07:53.251Z,22.73
2023-04-27T04:10:21.247Z,22.45
2023-04-27T04:12:51.386Z,24.38
2023-04-27T04:15:20.789Z,22.48
2023-04-27T04:17:49.463Z,23.65
2023-04-27T04:20:16.952Z,23.17
2023-04-27T04:22:45.984Z,25.90
2023-04-27T04:25:13.196Z,22.85
2023-04-27T04:27:44.748Z,23.67
2023-04-27T04:30:12.744Z,22.90
2023-04-27T04:32:40.387Z,23.23
2023-04-27T04:35:07.956Z,22.95
2023-04-27T04:37:41.141Z,23.58
2023-04-27T04:40:09.348Z,25.67
2023-04-27T04:42:40.468Z,26.58
2023-04-27T04:45:09.181Z,24.00
2023-04-27T04:47:36.766Z,26.40
2023-04-27T04:50:04.153Z,28.30
2023-04-27T04:52:31.550Z,27.65
2023-04-27T04:54:58.784Z,29.02
2023-04-27T04:57:25.894Z,27.77
2023-04-27T04:59:55.424Z,25.55
2023-04-27T05:02:27.975Z,36.33
2023-04-27T05:04:57.067Z,29.58
2023-04-27T05:07:25.055Z,29.65
2023-04-27T05:09:52.460Z,28.17
2023-04-27T05:12:21.642Z,30.98
2023-04-27T05:14:51.562Z,28.70
2023-04-27T05:17:21.529Z,27.52
2023-04-27T05:19:51.168Z,29.88
2023-04-27T05:22:18.188Z,26.88
2023-04-27T05:24:45.137Z,28.63
2023-04-27T05:27:17.200Z,30.65
2023-04-27T05:29:44.401Z,36.45
2023-04-27T05:32:11.403Z,29.65
2023-04-27T05:34:38.388Z,30.90
2023-04-27T05:37:05.361Z,33.58
2023-04-27T05:39:32.497Z,27.75
2023-04-27T05:41:59.462Z,29.75
2023-04-27T05:44:28.571Z,30.17
2023-04-27T05:46:58.042Z,31.38
2023-04-27T05:49:24.983Z,27.23
2023-04-27T05:51:52.090Z,34.30
2023-04-27T05:54:18.984Z,28.75
2023-04-27T05:56:51.208Z,27.50
2023-04-27T05:59:18.232Z,28.83
2023-04-27T06:01:50.017Z,28.92
2023-04-27T06:04:17.101Z,30.25
2023-04-27T06:06:46.824Z,28.38
2023-04-27T06:09:14.868Z,25.75
2023-04-27T06:11:44.876Z,26.17
2023-04-27T06:14:11.835Z,26.85
2023-04-27T06:16:41.378Z,29.70
2023-04-27T06:19:08.354Z,23.40
2023-04-27T06:21:35.610Z,27.40
2023-04-27T06:24:02.598Z,27.45
2023-04-27T06:26:31.716Z,26.58
2023-04-27T06:29:01.117Z,24.73
2023-04-27T06:31:28.163Z,26.17
2023-04-27T06:33:55.152Z,26.58
2023-04-27T06:36:25.021Z,27.08
2023-04-27T06:38:56.446Z,27.95
2023-04-27T06:41:24.074Z,27.52
2023-04-27T06:43:54.275Z,28.33
2023-04-27T06:46:23.550Z,25.52
2023-04-27T06:48:51.697Z,32.13
2023-04-27T06:51:18.785Z,27.60
2023-04-27T06:53:45.710Z,24.92
2023-04-27T06:56:12.833Z,25.88
2023-04-27T06:58:41.927Z,25.15
2023-04-27T07:01:08.924Z,23.98
2023-04-27T07:03:40.864Z,26.02
2023-04-27T07:06:07.955Z,27.33
2023-04-27T07:08:35.021Z,23.50
2023-04-27T07:11:01.995Z,24.33
2023-04-27T07:13:31.933Z,25.10
2023-04-27T07:16:01.909Z,21.02
2023-04-27T07:18:28.909Z,22.80
2023-04-27T07:20:58.012Z,22.92
2023-04-27T07:23:27.492Z,22.98
2023-04-27T07:25:57.616Z,23.58
2023-04-27T07:28:24.594Z,23.98
2023-04-27T07:30:53.766Z,20.77
2023-04-27T07:33:20.686Z,23.05
2023-04-27T07:35:48.195Z,18.42
2023-04-27T07:38:15.172Z,20.67
2023-04-27T07:40:46.213Z,17.60
2023-04-27T07:43:13.342Z,17.38
2023-04-27T07:45:41.652Z,21.60
2023-04-27T07:48:09.908Z,16.77
2023-04-27T07:50:39.395Z,16.48
2023-04-27T07:53:06.315Z,19.67
2023-04-27T07:55:33.249Z,17.65
2023-04-27T07:58:02.713Z,17.27
2023-04-27T08:00:29.661Z,19.25
2023-04-27T08:02:57.055Z,18.08
2023-04-27T08:05:24.809Z,18.50
2023-04-27T08:07:54.395Z,17.48
2023-04-27T08:10:24.137Z,21.40
2023-04-27T08:12:51.588Z,20.67
2023-04-27T08:15:18.587Z,20.65
2023-04-27T08:17:48.450Z,18.38
2023-04-27T08:20:15.443Z,31.75
2023-04-27T08:22:42.934Z,24.08
2023-04-27T08:25:09.995Z,37.30
2023-04-27T08:27:38.098Z,21.90
2023-04-27T08:30:05.754Z,21.33
2023-04-27T08:32:32.802Z,17.50
2023-04-27T08:34:59.806Z,16.65
2023-04-27T08:37:29.733Z,18.77
2023-04-27T08:39:59.814Z,21.27
2023-04-27T08:42:31.988Z,17.13
2023-04-27T08:44:58.916Z,14.20
2023-04-27T08:47:41.851Z,20.75
2023-04-27T08:50:11.769Z,20.13
2023-04-27T08:52:38.795Z,13.30
2023-04-27T08:55:07.520Z,16.05
2023-04-27T08:57:34.467Z,16.25
2023-04-27T09:00:01.584Z,15.80
2023-04-27T09:02:29.892Z,18.17
2023-04-27T09:04:57.279Z,13.05
2023-04-27T09:07:25.715Z,16.20
2023-04-27T09:10:03.128Z,34.80
2023-04-27T09:12:30.033Z,17.00
2023-04-27T09:15:06.753Z,13.93
2023-04-27T09:17:33.967Z,14.45
2023-04-27T09:20:10.896Z,19.58
2023-04-27T09:22:44.693Z,15.52
2023-04-27T09:25:22.538Z,16.73
2023-04-27T09:27:49.473Z,16.02
2023-04-27T09:30:16.843Z,14.85
2023-04-27T09:32:54.384Z,12.25
2023-04-27T09:35:29.257Z,15.18
2023-04-27T09:37:56.489Z,22.25
2023-04-27T09:40:28.074Z,13.38
2023-04-27T09:42:58.817Z,14.57
2023-04-27T09:45:26.073Z,19.95
2023-04-27T09:47:53.313Z,15.60
2023-04-27T09:50:25.017Z,15.05
2023-04-27T09:52:54.464Z,14.38
2023-04-27T09:55:55.167Z,11.45
2023-04-27T09:58:30.935Z,12.68
2023-04-27T10:01:01.274Z,11.07
2023-04-27T10:03:45.845Z,13.15
2023-04-27T10:06:57.929Z,10.13
2023-04-27T10:09:25.358Z,12.02
2023-04-27T10:11:57.885Z,12.90
2023-04-27T10:14:25.010Z,13.00
2023-04-27T10:16:55.722Z,12.20
2023-04-27T10:19:23.765Z,9.27
2023-04-27T10:22:03.815Z,10.98
2023-04-27T10:24:44.212Z,11.60
2023-04-27T10:27:12.360Z,10.70
2023-04-27T10:29:43.449Z,10.50
2023-04-27T10:32:21.731Z,12.68
2023-04-27T10:34:51.777Z,12.68
2023-04-27T10:37:24.739Z,10.00
2023-04-27T10:39:52.900Z,9.00
2023-04-27T10:42:30.497Z,11.25
2023-04-27T10:45:00.233Z,10.75
2023-04-27T10:47:39.531Z,9.30
2023-04-27T10:50:11.360Z,12.85
2023-04-27T10:52:49.962Z,8.68
2023-04-27T10:57:49.218Z,11.65
2023-04-27T11:00:46.632Z,12.43
2023-04-27T11:03:24.306Z,12.05
2023-04-27T11:06:04.371Z,12.68
2023-04-27T11:08:36.875Z,11.95
2023-04-27T11:11:06.109Z,9.75
2023-04-27T11:13:33.700Z,12.02
2023-04-27T11:16:04.949Z,11.60
2023-04-27T11:18:36.435Z,11.02
2023-04-27T11:21:12.680Z,11.02
2023-04-27T11:23:39.931Z,13.38
2023-04-27T11:26:14.819Z,8.25
2023-04-27T11:29:15.588Z,10.73
2023-04-27T11:31:51.961Z,10.27
2023-04-27T11:34:23.081Z,9.57
2023-04-27T11:37:10.845Z,8.25
2023-04-27T11:39:45.972Z,10.45
2023-04-27T11:42:19.731Z,8.50
2023-04-27T11:44:58.614Z,9.50
2023-04-27T11:47:27.665Z,12.95
2023-04-27T11:50:01.914Z,8.13
2023-04-27T11:52:36.102Z,9.82
2023-04-27T11:55:06.162Z,8.30
2023-04-27T11:57:33.788Z,10.63
2023-04-27T12:00:01.670Z,7.75
2023-04-27T12:02:31.725Z,8.13
2023-04-27T12:04:59.517Z,9.50
2023-04-27T12:07:27.123Z,8.13
2023-04-27T12:09:54.477Z,7.93
2023-04-27T12:12:23.854Z,9.88
2023-04-27T12:14:51.888Z,9.95
2023-04-27T12:17:18.899Z,9.20
2023-04-27T12:19:45.919Z,9.90
2023-04-27T12:22:15.516Z,9.15
2023-04-27T12:24:44.560Z,11.15
2023-04-27T12:27:12.927Z,9.57
2023-04-27T12:29:42.126Z,8.70
2023-04-27T12:32:09.142Z,7.20
2023-04-27T12:34:36.568Z,8.45
2023-04-27T12:37:03.481Z,8.35
2023-04-27T12:39:30.436Z,10.68
2023-04-27T12:41:58.360Z,6.78
2023-04-27T12:44:25.562Z,6.53
2023-04-27T12:46:52.549Z,9.60
2023-04-27T12:49:19.548Z,7.32
2023-04-27T12:51:47.996Z,9.25
2023-04-27T12:54:17.418Z,11.18
2023-04-27T12:56:44.483Z,8.65
2023-04-27T12:59:11.607Z,8.77
2023-04-27T13:01:38.947Z,11.57
2023-04-27T13:04:10.449Z,8.88
2023-04-27T13:06:39.886Z,9.60
2023-04-27T13:09:07.144Z,8.35
2023-04-27T13:11:34.080Z,10.15
2023-04-27T13:14:02.128Z,10.75
2023-04-27T13:16:29.250Z,14.23
2023-04-27T13:18:56.314Z,9.50
2023-04-27T13:21:25.466Z,11.93
2023-04-27T13:23:54.829Z,11.45
2023-04-27T13:26:22.512Z,9.88
2023-04-27T13:28:54.811Z,9.80
2023-04-27T13:31:21.736Z,11.20
2023-04-27T13:33:51.023Z,8.15
2023-04-27T13:36:17.970Z,9.85
2023-04-27T13:38:44.927Z,8.65
2023-04-27T13:41:14.134Z,9.60
2023-04-27T13:43:43.790Z,14.40
2023-04-27T13:48:42.987Z,10.23
2023-04-27T13:51:10.285Z,12.50
2023-04-27T13:53:39.721Z,9.60
2023-04-27T13:56:08.955Z,10.43
2023-04-27T13:58:38.545Z,9.65
2023-04-27T14:01:05.610Z,11.05
2023-04-27T14:03:35.422Z,10.55
2023-04-27T14:06:02.570Z,11.32
2023-04-27T14:08:29.513Z,8.75
2023-04-27T14:10:58.874Z,10.93
2023-04-27T14:13:25.869Z,10.80
2023-04-27T14:15:59.823Z,10.27
2023-04-27T14:18:32.642Z,10.13
2023-04-27T14:21:02.417Z,8.85
2023-04-27T14:23:31.841Z,11.52
2023-04-27T14:25:58.828Z,13.73
2023-04-27T14:28:26.017Z,11.80
2023-04-27T14:30:52.990Z,14.90
2023-04-27T14:33:19.971Z,16.08
2023-04-27T14:35:46.924Z,13.45
2023-04-27T14:38:16.404Z,12.48
2023-04-27T14:40:44.580Z,11.98
2023-04-27T14:43:11.687Z,13.70
2023-04-27T14:45:50.316Z,11.88
2023-04-27T14:48:18.625Z,11.60
2023-04-27T14:50:45.758Z,13.20
2023-04-27T14:53:12.780Z,12.27
2023-04-27T14:55:41.180Z,11.60
2023-04-27T14:58:11.522Z,13.35
2023-04-27T15:00:39.509Z,14.48
2023-04-27T15:03:06.674Z,13.02
2023-04-27T15:05:36.120Z,12.93
2023-04-27T15:08:07.675Z,9.40
2023-04-27T15:10:34.664Z,10.63
2023-04-27T15:13:04.619Z,13.27
2023-04-27T15:15:31.605Z,11.13
2023-04-27T15:17:58.979Z,13.43
2023-04-27T15:20:26.067Z,12.55
2023-04-27T15:22:53.044Z,14.30
2023-04-27T15:25:20.368Z,14.60
2023-04-27T15:27:49.757Z,14.88
2023-04-27T15:30:16.875Z,15.75
2023-04-27T15:32:50.009Z,12.68
2023-04-27T15:35:19.471Z,12.18
2023-04-27T15:37:49.449Z,13.05
2023-04-27T15:40:16.645Z,15.32
2023-04-27T15:42:43.675Z,14.73
2023-04-27T15:45:12.958Z,12.68
2023-04-27T15:47:42.184Z,15.10
2023-04-27T15:50:09.521Z,14.88
2023-04-27T15:52:38.865Z,14.13
2023-04-27T15:55:08.670Z,14.25
2023-04-27T15:57:37.922Z,13.50
2023-04-27T16:00:10.486Z,15.05
2023-04-27T16:05:10.046Z,15.60
2023-04-27T16:07:37.375Z,14.52
2023-04-27T16:10:04.812Z,14.23
2023-04-27T16:12:31.893Z,16.92
2023-04-27T16:15:01.050Z,16.95
2023-04-27T16:17:29.022Z,18.55
2023-04-27T16:20:00.404Z,17.05
2023-04-27T16:22:29.935Z,17.85
2023-04-27T16:24:57.042Z,19.83
2023-04-27T16:27:23.978Z,19.58
2023-04-27T16:29:53.137Z,19.75
2023-04-27T16:32:20.525Z,17.98
2023-04-27T16:34:47.662Z,21.05
2023-04-27T16:37:14.635Z,19.98
2023-04-27T16:39:41.626Z,22.30
2023-04-27T16:42:09.722Z,22.35
2023-04-27T16:44:37.940Z,24.65
2023-04-27T16:47:04.875Z,21.30
2023-04-27T16:49:31.790Z,21.33
2023-04-27T16:52:01.326Z,21.40
2023-04-27T16:54:28.406Z,19.13
2023-04-27T16:56:55.507Z,20.83
2023-04-27T16:59:22.721Z,20.67
2023-04-27T17:01:54.358Z,22.45
2023-04-27T17:04:21.497Z,24.83
2023-04-27T17:06:48.867Z,38.60
2023-04-27T17:09:18.149Z,21.00
2023-04-27T17:11:45.084Z,26.00
2023-04-27T17:14:11.980Z,21.90
2023-04-27T17:16:41.304Z,19.02
2023-04-27T17:19:08.237Z,23.00
2023-04-27T17:21:37.379Z,20.98
2023-04-27T17:24:04.592Z,22.90
2023-04-27T17:26:34.045Z,21.98
2023-04-27T17:29:03.214Z,25.85
2023-04-27T17:31:32.324Z,23.42
2023-04-27T17:33:59.427Z,26.08
2023-04-27T17:36:28.596Z,22.80
2023-04-27T17:38:57.741Z,24.77
2023-04-27T17:41:24.727Z,21.92
2023-04-27T17:43:51.717Z,22.20
2023-04-27T17:46:20.852Z,24.60
2023-04-27T17:48:47.808Z,21.63
2023-04-27T17:51:15.750Z,22.83
2023-04-27T17:53:42.688Z,24.67
2023-04-27T17:56:14.234Z,30.23
2023-04-27T17:58:41.241Z,24.00
2023-04-27T18:01:11.763Z,28.60
2023-04-27T18:03:38.844Z,26.88
2023-04-27T18:06:06.174Z,29.27
2023-04-27T18:08:33.105Z,27.95
2023-04-27T18:11:03.353Z,24.05
2023-04-27T18:13:31.929Z,25.08
2023-04-27T18:15:59.351Z,22.30
2023-04-27T18:18:26.933Z,21.58
2023-04-27T18:20:53.944Z,22.88
2023-04-27T18:23:21.215Z,24.45
2023-04-27T18:25:50.460Z,24.52
2023-04-27T18:28:20.689Z,24.65
2023-04-27T18:30:47.606Z,24.88
2023-04-27T18:33:17.880Z,27.48
2023-04-27T18:35:44.865Z,24.65
2023-04-27T18:38:16.579Z,25.35
2023-04-27T18:40:43.570Z,20.42
2023-04-27T18:43:10.640Z,27.52
2023-04-27T18:45:37.635Z,24.00
2023-04-27T18:48:04.705Z,23.63
2023-04-27T18:50:31.727Z,25.17
2023-04-27T18:53:00.992Z,27.02
2023-04-27T18:55:30.381Z,25.27
2023-04-27T18:57:57.278Z,24.40
2023-04-27T19:00:24.353Z,23.35
2023-04-27T19:02:52.307Z,25.73
2023-04-27T19:05:21.829Z,30.02
2023-04-27T19:07:48.880Z,23.90
2023-04-27T19:10:15.874Z,25.40
2023-04-27T19:12:45.132Z,25.08
2023-04-27T19:15:14.685Z,27.27
2023-04-27T19:17:44.123Z,25.00
2023-04-27T19:20:11.358Z,29.20
2023-04-27T19:22:40.812Z,26.70
2023-04-27T19:25:08.416Z,22.73
2023-04-27T19:27:35.364Z,29.38
2023-04-27T19:30:04.184Z,29.67
2023-04-27T19:32:31.383Z,31.27
2023-04-27T19:34:58.748Z,29.75
2023-04-27T19:37:26.870Z,31.67
2023-04-27T19:39:53.828Z,31.70
2023-04-27T19:42:24.865Z,32.38
2023-04-27T19:44:51.807Z,29.50
2023-04-27T19:47:18.825Z,29.52
2023-04-27T19:49:45.770Z,27.23
2023-04-27T19:52:12.754Z,33.40
2023-04-27T19:54:39.775Z,31.13
2023-04-27T19:57:06.735Z,31.00
2023-04-27T19:59:33.667Z,30.83
2023-04-27T20:02:00.753Z,28.23
2023-04-27T20:04:27.821Z,31.40
2023-04-27T20:06:57.173Z,28.83
2023-04-27T20:09:24.207Z,31.67
2023-04-27T20:11:51.132Z,30.05
2023-04-27T20:14:18.260Z,29.38
2023-04-27T20:16:45.440Z,30.48
2023-04-27T20:19:12.551Z,30.63
2023-04-27T20:21:44.382Z,28.40
2023-04-27T20:24:11.679Z,29.63
2023-04-27T20:26:41.165Z,31.00
2023-04-27T20:29:08.406Z,29.35
2023-04-27T20:31:37.910Z,29.05
2023-04-27T20:34:04.912Z,30.25
2023-04-27T20:36:33.934Z,28.98
2023-04-27T20:39:01.019Z,27.38
2023-04-27T20:41:28.239Z,25.50
2023-04-27T20:43:55.478Z,26.27
2023-04-27T20:46:22.438Z,20.52
2023-04-27T20:48:51.783Z,26.60
2023-04-27T20:51:19.179Z,24.50
2023-04-27T20:53:48.387Z,22.90
2023-04-27T20:56:15.319Z,21.27
2023-04-27T20:58:44.738Z,19.48
2023-04-27T21:01:13.819Z,18.70
2023-04-27T21:03:41.591Z,20.10
2023-04-27T21:06:08.751Z,18.80
2023-04-27T21:08:35.773Z,18.50
2023-04-27T21:11:07.307Z,20.10
2023-04-27T21:13:34.214Z,17.67
2023-04-27T21:16:02.000Z,19.42
2023-04-27T21:18:31.368Z,19.08
2023-04-27T21:20:58.548Z,18.10
2023-04-27T21:23:25.573Z,15.10
2023-04-27T21:25:55.073Z,13.18
2023-04-27T21:28:22.244Z,11.77
2023-04-27T21:30:51.955Z,11.43
2023-04-27T21:33:18.913Z,11.82
2023-04-27T21:35:46.056Z,11.82
2023-04-27T21:38:15.530Z,11.45
2023-04-27T21:40:44.907Z,11.93
2023-04-27T21:43:13.961Z,11.10
2023-04-27T21:45:41.377Z,10.50
2023-04-27T21:48:08.544Z,10.57
2023-04-27T21:50:37.729Z,10.75
2023-04-27T21:53:04.650Z,9.98
2023-04-27T21:55:34.059Z,9.13
2023-04-27T21:58:01.038Z,9.30
2023-04-27T22:00:30.466Z,9.10
2023-04-27T22:02:58.078Z,8.57
2023-04-27T22:05:29.327Z,9.88
2023-04-27T22:07:58.699Z,9.70
2023-04-27T22:10:27.825Z,7.97
2023-04-27T22:12:54.848Z,8.52
2023-04-27T22:15:24.747Z,8.73
2023-04-27T22:17:56.683Z,7.95
2023-04-27T22:20:24.851Z,10.15
2023-04-27T22:22:51.773Z,8.57
2023-04-27T22:25:18.920Z,10.27
2023-04-27T22:27:45.993Z,9.93
2023-04-27T22:30:15.990Z,8.35
2023-04-27T22:32:45.526Z,7.78
2023-04-27T22:35:24.747Z,9.25
2023-04-27T22:37:56.347Z,7.28
2023-04-27T22:40:23.575Z,6.70
2023-04-27T22:42:52.730Z,9.05
2023-04-27T22:45:19.672Z,7.60
2023-04-27T22:47:49.764Z,7.75
2023-04-27T22:50:19.080Z,7.68
2023-04-27T22:52:48.700Z,7.28
2023-04-27T22:55:16.137Z,13.68
2023-04-27T22:57:43.315Z,8.50
2023-04-27T23:00:11.624Z,9.40
2023-04-27T23:02:41.803Z,8.38
2023-04-27T23:05:09.383Z,7.00
2023-04-27T23:07:38.513Z,8.07
2023-04-27T23:10:05.988Z,7.28
2023-04-27T23:12:33.235Z,8.07
2023-04-27T23:15:02.627Z,7.60
2023-04-27T23:17:32.444Z,8.23
2023-04-27T23:20:11.059Z,7.30
2023-04-27T23:22:43.772Z,6.78
2023-04-27T23:25:11.380Z,8.02
2023-04-27T23:27:42.766Z,6.78
2023-04-27T23:30:10.096Z,10.55
2023-04-27T23:32:37.279Z,7.15
2023-04-27T23:35:06.935Z,9.40
2023-04-27T23:37:34.568Z,8.10
2023-04-27T23:40:01.713Z,7.70
2023-04-27T23:42:31.152Z,8.18
2023-04-27T23:44:58.453Z,9.02
2023-04-27T23:47:25.609Z,7.40
2023-04-27T23:49:52.560Z,7.43
2023-04-27T23:52:19.441Z,8.80
2023-04-27T23:54:46.378Z,6.25
2023-04-27T23:57:14.741Z,7.38
2023-04-27T23:59:41.843Z,6.70
